createdAt,value
2017-12-28T00:00:43.737Z,692.90
2017-12-28T00:02:44.691Z,692.86
2017-12-28T00:03:45.208Z,692.34
2017-12-28T00:04:45.631Z,692.39
2017-12-28T00:06:46.570Z,692.80
2017-12-28T00:07:47.026Z,692.37
2017-12-28T00:08:47.509Z,692.57
2017-12-28T00:09:47.977Z,692.60
2017-12-28T00:10:48.446Z,692.67
2017-12-28T00:11:48.902Z,692.47
2017-12-28T00:13:00.705Z,692.61
2017-12-28T00:13:49.857Z,692.46
2017-12-28T00:14:50.323Z,692.95
2017-12-28T00:15:50.794Z,692.92
2017-12-28T00:16:51.263Z,692.92
2017-12-28T00:18:52.188Z,692.57
2017-12-28T00:20:53.140Z,692.71
2017-12-28T00:22:54.129Z,692.79
2017-12-28T00:23:54.548Z,692.50
2017-12-28T00:24:55.019Z,692.71
2017-12-28T00:25:55.489Z,692.80
2017-12-28T00:26:55.955Z,692.96
2017-12-28T00:27:56.426Z,692.89
2017-12-28T00:29:57.351Z,692.57
2017-12-28T00:30:57.832Z,692.92
2017-12-28T00:31:58.301Z,692.29
2017-12-28T00:32:58.769Z,692.56
2017-12-28T00:33:59.240Z,692.51
2017-12-28T00:34:59.712Z,692.64
2017-12-28T00:36:00.178Z,692.63
2017-12-28T00:37:00.635Z,692.80
2017-12-28T00:38:01.116Z,692.69
2017-12-28T00:39:01.584Z,692.94
2017-12-28T00:40:02.056Z,692.82
2017-12-28T00:41:02.509Z,693.12
2017-12-28T00:42:02.991Z,693.02
2017-12-28T00:43:03.460Z,693.03
2017-12-28T00:44:03.929Z,692.96
2017-12-28T00:45:04.399Z,692.99
2017-12-28T00:46:04.867Z,693.06
2017-12-28T00:47:05.337Z,692.91
2017-12-28T00:48:05.792Z,692.86
2017-12-28T00:49:06.274Z,692.82
2017-12-28T00:50:06.740Z,692.77
2017-12-28T00:51:07.212Z,693.00
2017-12-28T00:52:07.682Z,693.05
2017-12-28T00:53:19.724Z,693.02
2017-12-28T00:55:09.074Z,692.75
2017-12-28T00:56:09.557Z,692.73
2017-12-28T00:57:10.026Z,693.11
2017-12-28T00:58:10.494Z,692.84
2017-12-28T00:59:10.948Z,692.79
2017-12-28T01:00:11.431Z,692.85
2017-12-28T01:01:11.900Z,692.72
2017-12-28T01:03:12.838Z,692.75
2017-12-28T01:04:13.306Z,692.97
2017-12-28T01:05:13.783Z,692.75
2017-12-28T01:06:14.232Z,692.74
2017-12-28T01:07:14.711Z,692.45
2017-12-28T01:08:15.180Z,692.67
2017-12-28T01:09:15.649Z,692.72
2017-12-28T01:10:16.118Z,692.77
2017-12-28T01:11:16.587Z,692.44
2017-12-28T01:12:17.056Z,692.89
2017-12-28T01:13:17.525Z,692.88
2017-12-28T01:14:17.995Z,692.68
2017-12-28T01:15:18.460Z,692.56
2017-12-28T01:16:18.917Z,692.92
2017-12-28T01:17:19.400Z,692.49
2017-12-28T01:18:31.806Z,692.77
2017-12-28T01:19:20.321Z,692.80
2017-12-28T01:21:21.273Z,692.52
2017-12-28T01:22:21.740Z,692.71
2017-12-28T01:23:22.208Z,692.92
2017-12-28T01:24:22.677Z,692.56
2017-12-28T01:25:23.145Z,692.83
2017-12-28T01:26:23.602Z,692.81
2017-12-28T01:27:24.084Z,692.85
2017-12-28T01:30:25.489Z,692.68
2017-12-28T01:31:25.941Z,692.59
2017-12-28T01:33:26.894Z,692.54
2017-12-28T01:34:27.363Z,692.41
2017-12-28T01:35:27.829Z,692.60
2017-12-28T01:36:28.296Z,692.63
2017-12-28T01:37:28.766Z,692.58
2017-12-28T01:38:29.234Z,692.71
2017-12-28T01:39:29.687Z,692.65
2017-12-28T01:40:30.169Z,692.87
2017-12-28T01:41:30.638Z,692.66
2017-12-28T01:42:31.107Z,692.71
2017-12-28T01:43:31.575Z,692.36
2017-12-28T01:45:32.512Z,693.12
2017-12-28T01:46:32.965Z,693.01
2017-12-28T01:50:34.850Z,693.32
2017-12-28T01:51:35.318Z,693.29
2017-12-28T01:52:35.787Z,693.19
2017-12-28T01:53:36.241Z,692.51
2017-12-28T01:54:36.722Z,693.07
2017-12-28T01:55:37.192Z,692.99
2017-12-28T01:56:37.658Z,692.69
2017-12-28T01:57:38.128Z,692.93
2017-12-28T01:58:38.594Z,692.98
2017-12-28T01:59:39.062Z,693.37
2017-12-28T02:00:39.525Z,693.15
2017-12-28T02:01:40.001Z,692.96
2017-12-28T02:03:40.933Z,693.39
2017-12-28T02:04:41.388Z,693.25
2017-12-28T02:06:42.337Z,692.73
2017-12-28T02:07:42.804Z,692.98
2017-12-28T02:08:43.272Z,693.02
2017-12-28T02:09:43.739Z,693.31
2017-12-28T02:10:44.209Z,693.41
2017-12-28T02:11:44.662Z,693.08
2017-12-28T02:12:45.146Z,693.07
2017-12-28T02:13:45.612Z,693.10
2017-12-28T02:14:57.817Z,693.32
2017-12-28T02:15:46.546Z,693.30
2017-12-28T02:16:47.001Z,693.09
2017-12-28T02:17:47.482Z,693.13
2017-12-28T02:18:47.949Z,692.96
2017-12-28T02:19:48.468Z,693.32
2017-12-28T02:20:48.886Z,692.93
2017-12-28T02:21:49.353Z,693.17
2017-12-28T02:22:49.824Z,693.33
2017-12-28T02:23:50.275Z,692.89
2017-12-28T02:24:50.756Z,693.28
2017-12-28T02:28:52.627Z,693.45
2017-12-28T02:29:53.095Z,693.38
2017-12-28T02:30:53.547Z,693.15
2017-12-28T02:31:54.030Z,692.50
2017-12-28T02:32:54.489Z,693.27
2017-12-28T02:33:54.965Z,693.09
2017-12-28T02:34:55.430Z,693.19
2017-12-28T02:35:55.900Z,693.20
2017-12-28T02:36:56.366Z,693.33
2017-12-28T02:37:56.832Z,693.27
2017-12-28T02:38:57.303Z,693.34
2017-12-28T02:39:57.805Z,693.40
2017-12-28T02:40:58.237Z,693.44
2017-12-28T02:41:58.703Z,693.14
2017-12-28T02:42:59.170Z,693.32
2017-12-28T02:43:59.638Z,693.36
2017-12-28T02:45:00.108Z,693.37
2017-12-28T02:46:00.571Z,693.31
2017-12-28T02:47:01.028Z,693.22
2017-12-28T02:48:01.506Z,693.16
2017-12-28T02:49:01.974Z,693.22
2017-12-28T02:50:02.443Z,693.39
2017-12-28T02:51:02.909Z,693.10
2017-12-28T02:53:03.844Z,692.80
2017-12-28T02:54:04.299Z,692.83
2017-12-28T02:55:04.831Z,693.29
2017-12-28T02:56:05.246Z,693.15
2017-12-28T02:58:06.168Z,693.33
2017-12-28T02:59:06.648Z,693.23
2017-12-28T03:00:07.114Z,693.18
2017-12-28T03:01:07.581Z,693.00
2017-12-28T03:02:08.050Z,693.48
2017-12-28T03:03:08.520Z,693.09
2017-12-28T03:04:08.987Z,693.27
2017-12-28T03:05:09.437Z,693.19
2017-12-28T03:07:10.385Z,692.76
2017-12-28T03:08:10.852Z,693.17
2017-12-28T03:09:11.306Z,693.20
2017-12-28T03:10:11.788Z,693.41
2017-12-28T03:11:12.255Z,693.33
2017-12-28T03:12:12.723Z,693.39
2017-12-28T03:13:13.175Z,693.23
2017-12-28T03:16:14.590Z,692.94
2017-12-28T03:18:15.525Z,692.96
2017-12-28T03:19:15.991Z,693.36
2017-12-28T03:20:16.458Z,693.03
2017-12-28T03:21:16.926Z,693.17
2017-12-28T03:22:17.384Z,693.10
2017-12-28T03:23:17.863Z,693.20
2017-12-28T03:24:18.325Z,693.21
2017-12-28T03:25:18.799Z,693.19
2017-12-28T03:26:19.262Z,693.06
2017-12-28T03:27:19.728Z,693.20
2017-12-28T03:28:20.182Z,693.22
2017-12-28T03:29:20.649Z,693.48
2017-12-28T03:30:21.131Z,692.89
2017-12-28T03:31:21.597Z,693.36
2017-12-28T03:32:22.062Z,693.22
2017-12-28T03:33:22.531Z,693.84
2017-12-28T03:34:22.999Z,693.64
2017-12-28T03:35:23.465Z,693.19
2017-12-28T03:36:23.931Z,692.89
2017-12-28T03:37:24.435Z,693.21
2017-12-28T03:38:24.865Z,693.14
2017-12-28T03:39:25.333Z,693.22
2017-12-28T03:41:26.266Z,693.44
2017-12-28T03:42:26.719Z,693.47
2017-12-28T03:43:27.201Z,692.95
2017-12-28T03:44:27.668Z,693.45
2017-12-28T03:45:28.121Z,693.31
2017-12-28T03:46:28.602Z,693.46
2017-12-28T03:49:30.003Z,693.24
2017-12-28T03:51:30.936Z,693.33
2017-12-28T03:52:31.389Z,693.38
2017-12-28T03:53:31.869Z,693.48
2017-12-28T03:54:32.355Z,693.31
2017-12-28T03:55:32.806Z,693.07
2017-12-28T03:56:33.271Z,693.66
2017-12-28T03:57:33.737Z,693.56
2017-12-28T03:58:34.201Z,692.98
2017-12-28T03:59:34.659Z,694.00
2017-12-28T04:00:35.138Z,693.55
2017-12-28T04:01:35.605Z,693.53
2017-12-28T04:02:36.072Z,693.32
2017-12-28T04:03:36.526Z,693.96
2017-12-28T04:04:37.005Z,693.58
2017-12-28T04:05:37.472Z,693.45
2017-12-28T04:06:37.940Z,693.21
2017-12-28T04:07:38.407Z,693.84
2017-12-28T04:08:38.862Z,693.41
2017-12-28T04:09:39.340Z,693.36
2017-12-28T04:10:39.807Z,693.74
2017-12-28T04:11:40.274Z,693.37
2017-12-28T04:12:40.727Z,693.26
2017-12-28T04:13:41.206Z,693.70
2017-12-28T04:14:41.675Z,693.62
2017-12-28T04:15:42.128Z,693.35
2017-12-28T04:16:42.607Z,693.64
2017-12-28T04:17:43.076Z,693.72
2017-12-28T04:19:44.008Z,693.71
2017-12-28T04:21:44.927Z,693.49
2017-12-28T04:22:45.408Z,693.86
2017-12-28T04:23:45.876Z,693.59
2017-12-28T04:24:46.339Z,693.60
2017-12-28T04:25:46.807Z,693.65
2017-12-28T04:26:47.276Z,693.25
2017-12-28T04:27:47.741Z,693.59
2017-12-28T04:28:48.209Z,693.73
2017-12-28T04:29:48.660Z,693.49
2017-12-28T04:31:00.929Z,693.55
2017-12-28T04:31:49.594Z,693.74
2017-12-28T04:32:50.075Z,693.80
2017-12-28T04:33:50.541Z,693.72
2017-12-28T04:34:51.009Z,693.70
2017-12-28T04:35:51.511Z,693.58
2017-12-28T04:36:51.940Z,693.72
2017-12-28T04:37:52.406Z,693.41
2017-12-28T04:38:52.873Z,693.68
2017-12-28T04:39:53.346Z,693.87
2017-12-28T04:40:53.794Z,693.52
2017-12-28T04:42:54.739Z,693.48
2017-12-28T04:44:55.672Z,693.59
2017-12-28T04:45:56.127Z,693.32
2017-12-28T04:46:56.604Z,693.69
2017-12-28T04:47:57.072Z,693.65
2017-12-28T04:48:57.537Z,693.59
2017-12-28T04:49:57.992Z,693.69
2017-12-28T04:50:58.470Z,693.51
2017-12-28T04:51:58.939Z,693.70
2017-12-28T04:52:59.403Z,693.97
2017-12-28T04:53:59.871Z,693.74
2017-12-28T04:56:00.790Z,693.80
2017-12-28T04:57:01.268Z,693.62
2017-12-28T04:58:01.736Z,693.75
2017-12-28T04:59:02.200Z,694.03
2017-12-28T05:00:02.668Z,693.68
2017-12-28T05:04:04.533Z,693.83
2017-12-28T05:05:04.998Z,694.23
2017-12-28T05:06:05.450Z,694.02
2017-12-28T05:07:05.932Z,694.04
2017-12-28T05:08:06.393Z,693.69
2017-12-28T05:10:07.330Z,694.02
2017-12-28T05:12:08.262Z,693.66
2017-12-28T05:14:09.193Z,693.97
2017-12-28T05:15:09.659Z,694.05
2017-12-28T05:16:10.134Z,693.91
2017-12-28T05:17:21.962Z,693.94
2017-12-28T05:18:11.057Z,693.84
2017-12-28T05:19:11.513Z,693.92
2017-12-28T05:20:11.991Z,693.76
2017-12-28T05:21:12.458Z,693.81
2017-12-28T05:22:12.922Z,694.15
2017-12-28T05:23:13.389Z,693.98
2017-12-28T05:24:13.856Z,694.04
2017-12-28T05:25:14.321Z,694.01
2017-12-28T05:26:14.786Z,694.29
2017-12-28T05:27:15.239Z,694.28
2017-12-28T05:28:15.720Z,694.23
2017-12-28T05:30:16.650Z,693.95
2017-12-28T05:31:17.117Z,694.11
2017-12-28T05:32:17.583Z,694.07
2017-12-28T05:34:18.517Z,694.19
2017-12-28T05:35:18.981Z,694.13
2017-12-28T05:36:19.449Z,694.23
2017-12-28T05:37:19.911Z,693.88
2017-12-28T05:38:20.366Z,693.81
2017-12-28T05:39:20.845Z,693.97
2017-12-28T05:40:21.312Z,693.92
2017-12-28T05:41:21.778Z,694.03
2017-12-28T05:42:22.241Z,694.07
2017-12-28T05:43:22.710Z,694.27
2017-12-28T05:44:23.174Z,694.08
2017-12-28T05:45:23.627Z,694.35
2017-12-28T05:46:24.106Z,693.88
2017-12-28T05:47:24.575Z,694.43
2017-12-28T05:48:25.040Z,694.15
2017-12-28T05:49:25.508Z,694.11
2017-12-28T05:50:25.971Z,694.60
2017-12-28T05:51:26.438Z,694.28
2017-12-28T05:52:26.888Z,694.43
2017-12-28T05:53:27.367Z,694.41
2017-12-28T05:54:27.834Z,694.22
2017-12-28T05:55:28.301Z,694.47
2017-12-28T05:56:28.767Z,693.85
2017-12-28T05:58:29.697Z,694.21
2017-12-28T05:59:30.152Z,694.53
2017-12-28T06:00:30.628Z,694.12
2017-12-28T06:01:31.094Z,694.28
2017-12-28T06:02:31.548Z,694.34
2017-12-28T06:03:32.029Z,694.41
2017-12-28T06:04:32.494Z,694.36
2017-12-28T06:05:32.961Z,694.36
2017-12-28T06:06:33.427Z,694.25
2017-12-28T06:10:35.275Z,694.50
2017-12-28T06:11:35.755Z,694.24
2017-12-28T06:13:36.687Z,694.49
2017-12-28T06:14:37.152Z,694.51
2017-12-28T06:15:37.617Z,694.67
2017-12-28T06:16:38.285Z,694.29
2017-12-28T06:17:38.536Z,694.48
2017-12-28T06:18:39.014Z,694.46
2017-12-28T06:19:39.481Z,694.39
2017-12-28T06:20:39.946Z,694.56
2017-12-28T06:21:40.411Z,694.24
2017-12-28T06:22:40.878Z,694.59
2017-12-28T06:23:41.343Z,694.70
2017-12-28T06:24:41.796Z,694.88
2017-12-28T06:25:42.275Z,694.63
2017-12-28T06:26:42.739Z,694.31
2017-12-28T06:27:43.206Z,694.52
2017-12-28T06:28:43.659Z,694.39
2017-12-28T06:29:44.136Z,694.26
2017-12-28T06:30:44.604Z,694.53
2017-12-28T06:31:45.071Z,694.57
2017-12-28T06:32:45.534Z,694.51
2017-12-28T06:33:45.999Z,694.64
2017-12-28T06:34:46.465Z,694.60
2017-12-28T06:35:46.920Z,694.45
2017-12-28T06:36:47.396Z,694.70
2017-12-28T06:37:47.862Z,694.75
2017-12-28T06:38:48.326Z,694.91
2017-12-28T06:39:48.793Z,694.63
2017-12-28T06:40:49.260Z,694.67
2017-12-28T06:41:49.725Z,694.68
2017-12-28T06:42:50.191Z,694.69
2017-12-28T06:43:50.656Z,695.04
2017-12-28T06:44:51.121Z,694.72
2017-12-28T06:45:51.629Z,694.28
2017-12-28T06:46:52.040Z,694.83
2017-12-28T06:47:52.520Z,694.83
2017-12-28T06:48:53.038Z,695.02
2017-12-28T06:49:53.453Z,695.13
2017-12-28T06:51:54.385Z,694.70
2017-12-28T06:53:55.298Z,695.11
2017-12-28T06:54:55.780Z,695.09
2017-12-28T06:55:56.244Z,694.76
2017-12-28T06:56:56.711Z,695.23
2017-12-28T06:57:57.160Z,695.08
2017-12-28T06:58:57.642Z,694.98
2017-12-28T06:59:58.108Z,694.97
2017-12-28T07:00:58.557Z,694.93
2017-12-28T07:01:59.036Z,695.09
2017-12-28T07:02:59.503Z,694.82
2017-12-28T07:03:59.968Z,695.05
2017-12-28T07:05:00.420Z,695.11
2017-12-28T07:06:00.901Z,695.23
2017-12-28T07:07:01.367Z,695.12
2017-12-28T07:08:01.830Z,695.04
2017-12-28T07:09:02.347Z,695.20
2017-12-28T07:10:02.759Z,695.20
2017-12-28T07:11:03.225Z,695.36
2017-12-28T07:12:03.677Z,695.19
2017-12-28T07:13:04.157Z,694.93
2017-12-28T07:14:16.106Z,695.02
2017-12-28T07:15:05.086Z,695.11
2017-12-28T07:17:06.019Z,695.09
2017-12-28T07:18:06.486Z,695.20
2017-12-28T07:19:06.937Z,695.43
2017-12-28T07:20:07.415Z,695.07
2017-12-28T07:21:07.879Z,695.33
2017-12-28T07:22:08.346Z,695.14
2017-12-28T07:23:08.797Z,695.03
2017-12-28T07:24:09.276Z,695.07
2017-12-28T07:25:09.742Z,695.44
2017-12-28T07:27:10.673Z,694.99
2017-12-28T07:28:11.138Z,695.26
2017-12-28T07:29:11.603Z,695.32
2017-12-28T07:30:12.057Z,695.01
2017-12-28T07:31:12.532Z,695.38
2017-12-28T07:32:13.002Z,695.28
2017-12-28T07:33:13.464Z,695.31
2017-12-28T07:34:13.916Z,695.40
2017-12-28T07:35:14.393Z,695.22
2017-12-28T07:36:14.860Z,695.38
2017-12-28T07:37:15.326Z,695.45
2017-12-28T07:38:15.791Z,695.65
2017-12-28T07:39:16.259Z,695.36
2017-12-28T07:40:16.721Z,695.35
2017-12-28T07:41:17.176Z,695.58
2017-12-28T07:42:17.653Z,695.56
2017-12-28T07:43:18.117Z,695.63
2017-12-28T07:44:18.585Z,695.21
2017-12-28T07:45:19.047Z,695.18
2017-12-28T07:46:19.515Z,695.31
2017-12-28T07:47:19.980Z,695.19
2017-12-28T07:48:20.444Z,695.35
2017-12-28T07:49:20.910Z,695.48
2017-12-28T07:50:21.364Z,695.61
2017-12-28T07:51:21.839Z,695.39
2017-12-28T07:52:22.305Z,695.51
2017-12-28T07:53:22.773Z,695.42
2017-12-28T07:54:23.239Z,695.54
2017-12-28T07:55:23.701Z,695.68
2017-12-28T07:56:24.170Z,695.81
2017-12-28T07:57:24.637Z,695.79
2017-12-28T07:59:25.565Z,695.76
2017-12-28T08:01:26.480Z,695.77
2017-12-28T08:02:26.958Z,695.64
2017-12-28T08:03:27.424Z,695.60
2017-12-28T08:04:27.890Z,695.70
2017-12-28T08:05:28.354Z,695.48
2017-12-28T08:07:29.286Z,695.57
2017-12-28T08:08:29.740Z,695.67
2017-12-28T08:09:30.218Z,695.64
2017-12-28T08:10:30.682Z,695.88
2017-12-28T08:11:31.149Z,695.69
2017-12-28T08:12:31.599Z,695.76
2017-12-28T08:14:32.542Z,695.82
2017-12-28T08:15:33.007Z,695.93
2017-12-28T08:16:33.472Z,695.86
2017-12-28T08:17:33.939Z,696.05
2017-12-28T08:18:34.404Z,695.76
2017-12-28T08:19:34.873Z,696.16
2017-12-28T08:20:35.335Z,696.16
2017-12-28T08:21:35.788Z,695.84
2017-12-28T08:22:36.264Z,695.84
2017-12-28T08:23:36.730Z,695.75
2017-12-28T08:25:37.662Z,695.86
2017-12-28T08:28:39.047Z,695.96
2017-12-28T08:29:39.523Z,695.91
2017-12-28T08:30:39.988Z,695.90
2017-12-28T08:31:40.452Z,696.13
2017-12-28T08:32:40.906Z,696.08
2017-12-28T08:33:41.385Z,696.29
2017-12-28T08:34:41.849Z,696.09
2017-12-28T08:36:42.781Z,696.18
2017-12-28T08:37:43.247Z,696.24
2017-12-28T08:38:43.711Z,696.01
2017-12-28T08:39:44.165Z,696.10
2017-12-28T08:40:44.644Z,696.32
2017-12-28T08:41:45.108Z,696.44
2017-12-28T08:42:45.572Z,696.32
2017-12-28T08:43:46.025Z,696.26
2017-12-28T08:44:46.504Z,696.34
2017-12-28T08:47:47.901Z,696.41
2017-12-28T08:50:49.282Z,696.45
2017-12-28T08:51:49.761Z,696.49
2017-12-28T08:52:50.226Z,696.27
2017-12-28T08:53:50.694Z,696.10
2017-12-28T08:54:51.157Z,696.49
2017-12-28T08:55:51.625Z,696.40
2017-12-28T08:56:52.089Z,696.44
2017-12-28T08:57:52.540Z,696.39
2017-12-28T08:58:53.020Z,696.35
2017-12-28T08:59:53.487Z,696.18
2017-12-28T09:00:53.951Z,696.32
2017-12-28T09:01:54.415Z,696.39
2017-12-28T09:02:54.880Z,696.31
2017-12-28T09:03:55.347Z,696.48
2017-12-28T09:04:55.812Z,696.18
2017-12-28T09:06:56.730Z,696.42
2017-12-28T09:07:57.208Z,696.54
2017-12-28T09:09:58.126Z,696.62
2017-12-28T09:10:58.606Z,696.65
2017-12-28T09:11:59.070Z,696.68
2017-12-28T09:12:59.538Z,696.72
2017-12-28T09:14:00.004Z,696.71
2017-12-28T09:15:00.469Z,696.64
2017-12-28T09:16:00.933Z,696.64
2017-12-28T09:17:01.400Z,696.64
2017-12-28T09:18:01.863Z,696.49
2017-12-28T09:19:02.315Z,696.52
2017-12-28T09:20:02.794Z,696.80
2017-12-28T09:21:03.260Z,696.81
2017-12-28T09:22:03.727Z,696.85
2017-12-28T09:23:04.191Z,696.54
2017-12-28T09:25:05.123Z,696.77
2017-12-28T09:27:06.054Z,696.79
2017-12-28T09:32:08.381Z,696.75
2017-12-28T09:33:08.835Z,697.00
2017-12-28T09:34:09.313Z,696.89
2017-12-28T09:35:09.780Z,696.93
2017-12-28T09:36:10.230Z,696.96
2017-12-28T09:37:10.711Z,696.76
2017-12-28T09:38:11.175Z,696.92
2017-12-28T09:39:11.639Z,696.71
2017-12-28T09:40:12.105Z,696.80
2017-12-28T09:41:24.259Z,696.73
2017-12-28T09:42:13.038Z,696.70
2017-12-28T09:43:13.490Z,696.54
2017-12-28T09:44:13.956Z,696.72
2017-12-28T09:45:14.434Z,696.86
2017-12-28T09:46:14.902Z,696.70
2017-12-28T09:47:15.366Z,696.90
2017-12-28T09:49:16.299Z,696.88
2017-12-28T09:52:17.697Z,696.59
2017-12-28T09:53:18.149Z,696.98
2017-12-28T09:54:18.627Z,696.91
2017-12-28T09:55:19.094Z,696.92
2017-12-28T09:56:19.609Z,696.51
2017-12-28T09:57:20.025Z,696.88
2017-12-28T09:58:20.497Z,696.97
2017-12-28T09:59:20.956Z,696.96
2017-12-28T10:00:21.419Z,696.97
2017-12-28T10:01:21.890Z,696.74
2017-12-28T10:02:22.354Z,696.74
2017-12-28T10:03:22.820Z,696.61
2017-12-28T10:04:23.287Z,696.60
2017-12-28T10:06:36.194Z,696.53
2017-12-28T10:07:24.685Z,696.82
2017-12-28T10:08:25.138Z,696.73
2017-12-28T10:09:25.617Z,696.85
2017-12-28T10:10:26.083Z,696.82
2017-12-28T10:11:26.549Z,697.01
2017-12-28T10:12:27.015Z,697.05
2017-12-28T10:13:27.481Z,696.63
2017-12-28T10:14:27.947Z,696.78
2017-12-28T10:15:28.413Z,696.82
2017-12-28T10:16:28.886Z,696.98
2017-12-28T10:17:29.346Z,696.93
2017-12-28T10:19:30.265Z,696.93
2017-12-28T10:20:30.744Z,697.18
2017-12-28T10:21:31.211Z,697.15
2017-12-28T10:22:31.680Z,696.73
2017-12-28T10:23:32.129Z,696.69
2017-12-28T10:24:32.611Z,697.06
2017-12-28T10:25:33.075Z,697.11
2017-12-28T10:26:33.593Z,696.78
2017-12-28T10:27:34.010Z,696.60
2017-12-28T10:28:34.474Z,696.96
2017-12-28T10:29:34.939Z,696.96
2017-12-28T10:30:35.394Z,696.99
2017-12-28T10:31:35.872Z,697.10
2017-12-28T10:32:36.375Z,696.68
2017-12-28T10:33:36.804Z,696.78
2017-12-28T10:34:37.258Z,696.61
2017-12-28T10:35:37.737Z,696.27
2017-12-28T10:37:38.669Z,696.37
2017-12-28T10:38:39.138Z,696.78
2017-12-28T10:39:39.602Z,696.61
2017-12-28T10:40:40.069Z,696.78
2017-12-28T10:41:40.542Z,696.69
2017-12-28T10:51:04.534Z,696.83
2017-12-28T10:52:05.001Z,696.75
2017-12-28T10:53:05.470Z,697.11
2017-12-28T10:54:05.933Z,697.05
2017-12-28T10:55:06.388Z,696.81
2017-12-28T10:56:06.868Z,696.68
2017-12-28T10:57:07.335Z,696.82
2017-12-28T10:58:07.786Z,696.72
2017-12-28T11:00:08.720Z,696.67
2017-12-28T11:02:09.667Z,697.15
2017-12-28T11:03:10.134Z,697.08
2017-12-28T11:04:10.603Z,697.07
2017-12-28T11:05:11.068Z,697.09
2017-12-28T11:06:11.533Z,696.93
2017-12-28T11:07:11.987Z,697.10
2017-12-28T11:09:12.934Z,696.67
2017-12-28T11:10:13.402Z,696.82
2017-12-28T11:11:13.868Z,696.53
2017-12-28T11:12:14.337Z,696.75
2017-12-28T11:13:14.801Z,696.96
2017-12-28T11:14:15.268Z,696.68
2017-12-28T11:15:15.725Z,696.82
2017-12-28T11:17:16.671Z,696.75
2017-12-28T11:18:17.137Z,696.68
2017-12-28T11:19:17.604Z,696.85
2017-12-28T11:20:18.072Z,696.24
2017-12-28T11:21:18.538Z,696.80
2017-12-28T11:22:19.006Z,696.74
2017-12-28T11:23:19.473Z,696.75
2017-12-28T11:24:19.939Z,696.57
2017-12-28T11:25:20.409Z,696.48
2017-12-28T11:26:20.859Z,696.52
2017-12-28T11:27:21.340Z,696.72
2017-12-28T11:28:21.809Z,696.88
2017-12-28T11:29:22.274Z,696.57
2017-12-28T11:30:22.742Z,696.75
2017-12-28T11:31:23.209Z,696.65
2017-12-28T11:32:23.676Z,696.58
2017-12-28T11:33:24.130Z,696.93
2017-12-28T11:34:24.611Z,696.66
2017-12-28T11:35:37.271Z,696.86
2017-12-28T11:36:25.547Z,696.76
2017-12-28T11:37:26.014Z,696.28
2017-12-28T11:38:26.479Z,696.75
2017-12-28T11:39:26.947Z,696.72
2017-12-28T11:41:27.868Z,696.98
2017-12-28T11:42:28.348Z,696.95
2017-12-28T11:43:28.815Z,697.14
2017-12-28T11:44:29.283Z,697.21
2017-12-28T11:45:29.748Z,697.05
2017-12-28T11:46:30.215Z,697.07
2017-12-28T11:47:30.684Z,697.09
2017-12-28T11:48:31.138Z,697.32
2017-12-28T11:49:31.618Z,697.13
2017-12-28T11:50:32.084Z,697.17
2017-12-28T11:51:32.552Z,697.53
2017-12-28T11:52:33.019Z,697.38
2017-12-28T11:53:33.489Z,697.47
2017-12-28T11:54:33.953Z,697.51
2017-12-28T11:55:34.409Z,697.58
2017-12-28T11:56:34.890Z,697.58
2017-12-28T11:57:35.360Z,697.64
2017-12-28T11:58:35.824Z,697.57
2017-12-28T12:00:48.295Z,697.47
2017-12-28T12:01:37.225Z,697.20
2017-12-28T12:02:37.693Z,697.54
2017-12-28T12:03:38.160Z,697.58
2017-12-28T12:04:38.614Z,697.62
2017-12-28T12:05:39.145Z,697.49
2017-12-28T12:06:39.561Z,697.45
2017-12-28T12:07:40.016Z,697.47
2017-12-28T12:08:40.496Z,697.35
2017-12-28T12:09:40.965Z,697.62
2017-12-28T12:10:41.431Z,697.61
2017-12-28T12:11:41.899Z,697.74
2017-12-28T12:12:42.368Z,697.64
2017-12-28T12:13:42.834Z,697.58
2017-12-28T12:14:43.289Z,697.75
2017-12-28T12:15:43.768Z,698.00
2017-12-28T12:16:44.238Z,697.98
2017-12-28T12:18:45.172Z,697.91
2017-12-28T12:19:45.639Z,697.91
2017-12-28T12:20:46.107Z,697.91
2017-12-28T12:21:46.576Z,697.72
2017-12-28T12:22:47.042Z,697.85
2017-12-28T12:23:47.510Z,697.71
2017-12-28T12:24:47.977Z,697.79
2017-12-28T12:25:48.499Z,697.79
2017-12-28T12:26:48.912Z,697.90
2017-12-28T12:27:49.379Z,697.87
2017-12-28T12:28:49.848Z,697.74
2017-12-28T12:29:50.318Z,697.94
2017-12-28T12:30:50.770Z,697.93
2017-12-28T12:31:51.250Z,698.01
2017-12-28T12:32:51.725Z,697.90
2017-12-28T12:33:52.172Z,697.92
2017-12-28T12:34:52.653Z,697.96
2017-12-28T12:35:53.171Z,697.90
2017-12-28T12:36:53.616Z,697.96
2017-12-28T12:37:54.060Z,698.04
2017-12-28T12:38:54.524Z,698.06
2017-12-28T12:39:54.990Z,698.07
2017-12-28T12:40:55.511Z,698.12
2017-12-28T12:41:55.912Z,698.09
2017-12-28T12:42:56.394Z,698.11
2017-12-28T12:43:56.862Z,697.94
2017-12-28T12:44:57.331Z,697.99
2017-12-28T12:45:57.796Z,697.85
2017-12-28T12:46:58.265Z,697.85
2017-12-28T12:47:58.734Z,698.02
2017-12-28T12:48:59.206Z,698.17
2017-12-28T12:49:59.670Z,698.12
2017-12-28T12:51:00.186Z,697.86
2017-12-28T12:52:00.601Z,697.97
2017-12-28T12:53:01.072Z,697.85
2017-12-28T12:54:01.539Z,697.99
2017-12-28T12:55:01.993Z,697.89
2017-12-28T12:56:14.349Z,698.10
2017-12-28T12:57:02.948Z,697.89
2017-12-28T12:59:03.874Z,698.09
2017-12-28T13:00:04.343Z,698.15
2017-12-28T13:02:05.278Z,698.10
2017-12-28T13:03:05.748Z,698.22
2017-12-28T13:04:06.215Z,698.17
2017-12-28T13:05:06.681Z,698.18
2017-12-28T13:06:07.151Z,698.23
2017-12-28T13:07:07.617Z,698.07
2017-12-28T13:08:08.071Z,698.19
2017-12-28T13:09:08.554Z,698.07
2017-12-28T13:10:09.019Z,698.15
2017-12-28T13:11:09.486Z,698.24
2017-12-28T13:12:09.955Z,698.21
2017-12-28T13:13:10.422Z,698.19
2017-12-28T13:15:11.356Z,698.17
2017-12-28T13:16:11.878Z,698.19
2017-12-28T13:17:12.280Z,698.31
2017-12-28T13:18:12.760Z,698.30
2017-12-28T13:19:13.227Z,698.13
2017-12-28T13:21:14.150Z,698.34
2017-12-28T13:22:14.628Z,698.23
2017-12-28T13:24:15.564Z,698.28
2017-12-28T13:26:28.325Z,698.28
2017-12-28T13:27:16.966Z,698.30
2017-12-28T13:28:17.435Z,698.35
2017-12-28T13:29:17.901Z,698.33
2017-12-28T13:30:18.370Z,698.29
2017-12-28T13:31:18.836Z,698.24
2017-12-28T13:32:19.292Z,698.37
2017-12-28T13:33:19.773Z,698.39
2017-12-28T13:34:20.240Z,698.29
2017-12-28T13:35:20.706Z,698.43
2017-12-28T13:36:33.367Z,698.34
2017-12-28T13:38:22.096Z,698.47
2017-12-28T13:39:22.576Z,698.64
2017-12-28T13:40:23.045Z,698.50
2017-12-28T13:41:23.563Z,698.62
2017-12-28T13:43:24.449Z,698.57
2017-12-28T13:44:24.915Z,698.59
2017-12-28T13:45:25.384Z,698.62
2017-12-28T13:47:26.318Z,698.49
2017-12-28T13:48:26.785Z,698.57
2017-12-28T13:49:27.239Z,698.70
2017-12-28T13:50:27.725Z,698.71
2017-12-28T13:51:28.189Z,698.69
2017-12-28T13:52:28.655Z,698.65
2017-12-28T13:53:29.111Z,698.70
2017-12-28T13:54:29.592Z,698.70
2017-12-28T13:55:30.060Z,698.60
2017-12-28T13:56:30.525Z,698.65
2017-12-28T13:57:30.993Z,698.73
2017-12-28T13:58:31.462Z,698.60
2017-12-28T13:59:31.917Z,698.58
2017-12-28T14:00:32.394Z,698.81
2017-12-28T14:01:32.893Z,698.81
2017-12-28T14:02:33.330Z,698.88
2017-12-28T14:03:33.798Z,698.84
2017-12-28T14:04:34.267Z,698.83
2017-12-28T14:05:34.736Z,698.84
2017-12-28T14:07:35.669Z,698.94
2017-12-28T14:08:36.123Z,698.87
2017-12-28T14:09:36.604Z,698.84
2017-12-28T14:10:37.077Z,698.83
2017-12-28T14:11:37.539Z,698.76
2017-12-28T14:12:38.007Z,698.81
2017-12-28T14:13:38.476Z,698.88
2017-12-28T14:14:38.942Z,698.91
2017-12-28T14:15:39.408Z,699.00
2017-12-28T14:16:39.927Z,699.08
2017-12-28T14:18:40.811Z,698.99
2017-12-28T14:19:41.264Z,698.99
2017-12-28T14:20:41.747Z,698.95